sensor_id;sensor_type;location;lat;lon;timestamp;P1;durP1;ratioP1;P2;durP2;ratioP2
12445;SDS011;6287;50.984;7.022;2022-12-29T00:00:04;0.70;;;0.70;;
12445;SDS011;6287;50.984;7.022;2022-12-29T00:02:33;1.33;;;0.70;;
12445;SDS011;6287;50.984;7.022;2022-12-29T00:04:59;0.77;;;0.77;;
12445;SDS011;6287;50.984;7.022;2022-12-29T00:07:24;0.73;;;0.50;;
12445;SDS011;6287;50.984;7.022;2022-12-29T00:09:50;1.63;;;0.80;;
12445;SDS011;6287;50.984;7.022;2022-12-29T00:12:18;0.67;;;0.40;;
12445;SDS011;6287;50.984;7.022;2022-12-29T00:14:44;1.97;;;0.70;;
12445;SDS011;6287;50.984;7.022;2022-12-29T00:17:28;0.60;;;0.60;;
12445;SDS011;6287;50.984;7.022;2022-12-29T00:19:54;0.50;;;0.50;;
12445;SDS011;6287;50.984;7.022;2022-12-29T00:22:38;0.87;;;0.60;;
12445;SDS011;6287;50.984;7.022;2022-12-29T00:25:25;0.53;;;0.53;;
12445;SDS011;6287;50.984;7.022;2022-12-29T00:28:09;0.50;;;0.50;;
12445;SDS011;6287;50.984;7.022;2022-12-29T00:30:59;0.60;;;0.60;;
12445;SDS011;6287;50.984;7.022;2022-12-29T00:33:43;0.57;;;0.57;;
12445;SDS011;6287;50.984;7.022;2022-12-29T00:36:37;0.40;;;0.40;;
12445;SDS011;6287;50.984;7.022;2022-12-29T00:39:07;0.40;;;0.40;;
12445;SDS011;6287;50.984;7.022;2022-12-29T00:42:02;0.60;;;0.60;;
12445;SDS011;6287;50.984;7.022;2022-12-29T00:44:50;0.50;;;0.50;;
12445;SDS011;6287;50.984;7.022;2022-12-29T00:47:19;0.53;;;0.53;;
12445;SDS011;6287;50.984;7.022;2022-12-29T00:49:45;0.47;;;0.47;;
12445;SDS011;6287;50.984;7.022;2022-12-29T00:52:11;1.07;;;0.50;;
12445;SDS011;6287;50.984;7.022;2022-12-29T00:54:40;0.57;;;0.57;;
12445;SDS011;6287;50.984;7.022;2022-12-29T00:57:09;0.50;;;0.50;;
12445;SDS011;6287;50.984;7.022;2022-12-29T00:59:35;0.40;;;0.40;;
12445;SDS011;6287;50.984;7.022;2022-12-29T01:02:10;0.40;;;0.40;;
12445;SDS011;6287;50.984;7.022;2022-12-29T01:04:40;0.37;;;0.37;;
12445;SDS011;6287;50.984;7.022;2022-12-29T01:07:06;0.33;;;0.33;;
12445;SDS011;6287;50.984;7.022;2022-12-29T01:09:31;0.40;;;0.40;;
12445;SDS011;6287;50.984;7.022;2022-12-29T01:12:33;0.40;;;0.40;;
12445;SDS011;6287;50.984;7.022;2022-12-29T01:15:12;0.30;;;0.30;;
12445;SDS011;6287;50.984;7.022;2022-12-29T01:17:41;0.40;;;0.40;;
12445;SDS011;6287;50.984;7.022;2022-12-29T01:20:07;0.30;;;0.30;;
12445;SDS011;6287;50.984;7.022;2022-12-29T01:22:38;0.50;;;0.47;;
12445;SDS011;6287;50.984;7.022;2022-12-29T01:25:07;0.23;;;0.23;;
12445;SDS011;6287;50.984;7.022;2022-12-29T01:27:36;0.43;;;0.43;;
12445;SDS011;6287;50.984;7.022;2022-12-29T01:30:03;0.43;;;0.43;;
12445;SDS011;6287;50.984;7.022;2022-12-29T01:32:32;0.87;;;0.40;;
12445;SDS011;6287;50.984;7.022;2022-12-29T01:34:58;1.27;;;0.33;;
12445;SDS011;6287;50.984;7.022;2022-12-29T01:37:26;0.33;;;0.33;;
12445;SDS011;6287;50.984;7.022;2022-12-29T01:39:54;0.30;;;0.30;;
12445;SDS011;6287;50.984;7.022;2022-12-29T01:42:24;0.30;;;0.30;;
12445;SDS011;6287;50.984;7.022;2022-12-29T01:47:30;0.30;;;0.30;;
12445;SDS011;6287;50.984;7.022;2022-12-29T01:50:03;0.77;;;0.30;;
12445;SDS011;6287;50.984;7.022;2022-12-29T01:52:40;0.30;;;0.30;;
12445;SDS011;6287;50.984;7.022;2022-12-29T01:55:12;0.30;;;0.30;;
12445;SDS011;6287;50.984;7.022;2022-12-29T01:57:39;0.40;;;0.40;;
12445;SDS011;6287;50.984;7.022;2022-12-29T02:00:12;0.30;;;0.30;;
12445;SDS011;6287;50.984;7.022;2022-12-29T02:02:39;0.30;;;0.30;;
12445;SDS011;6287;50.984;7.022;2022-12-29T02:05:16;0.30;;;0.30;;
12445;SDS011;6287;50.984;7.022;2022-12-29T02:07:57;0.30;;;0.30;;
12445;SDS011;6287;50.984;7.022;2022-12-29T02:10:24;0.20;;;0.20;;
12445;SDS011;6287;50.984;7.022;2022-12-29T02:12:54;0.30;;;0.30;;
12445;SDS011;6287;50.984;7.022;2022-12-29T02:15:23;0.30;;;0.30;;
12445;SDS011;6287;50.984;7.022;2022-12-29T02:29:30;0.90;;;0.50;;
12445;SDS011;6287;50.984;7.022;2022-12-29T02:32:43;0.50;;;0.50;;
12445;SDS011;6287;50.984;7.022;2022-12-29T02:37:57;0.40;;;0.40;;
12445;SDS011;6287;50.984;7.022;2022-12-29T02:43:12;0.87;;;0.30;;
12445;SDS011;6287;50.984;7.022;2022-12-29T02:45:53;0.40;;;0.40;;
12445;SDS011;6287;50.984;7.022;2022-12-29T02:48:28;0.37;;;0.37;;
12445;SDS011;6287;50.984;7.022;2022-12-29T02:50:58;0.40;;;0.40;;
12445;SDS011;6287;50.984;7.022;2022-12-29T02:53:29;0.37;;;0.37;;
12445;SDS011;6287;50.984;7.022;2022-12-29T02:56:16;0.73;;;0.60;;
12445;SDS011;6287;50.984;7.022;2022-12-29T02:58:42;0.53;;;0.40;;
12445;SDS011;6287;50.984;7.022;2022-12-29T03:03:53;0.50;;;0.30;;
12445;SDS011;6287;50.984;7.022;2022-12-29T03:15:00;0.30;;;0.30;;
12445;SDS011;6287;50.984;7.022;2022-12-29T03:18:06;0.30;;;0.30;;
12445;SDS011;6287;50.984;7.022;2022-12-29T03:20:39;0.40;;;0.40;;
12445;SDS011;6287;50.984;7.022;2022-12-29T03:23:14;0.60;;;0.60;;
12445;SDS011;6287;50.984;7.022;2022-12-29T03:25:46;0.30;;;0.30;;
12445;SDS011;6287;50.984;7.022;2022-12-29T03:28:23;0.40;;;0.40;;
12445;SDS011;6287;50.984;7.022;2022-12-29T03:30:55;0.33;;;0.33;;
12445;SDS011;6287;50.984;7.022;2022-12-29T03:33:24;0.30;;;0.30;;
12445;SDS011;6287;50.984;7.022;2022-12-29T03:35:57;1.57;;;0.40;;
12445;SDS011;6287;50.984;7.022;2022-12-29T03:41:01;1.23;;;0.50;;
12445;SDS011;6287;50.984;7.022;2022-12-29T03:43:30;0.37;;;0.37;;
12445;SDS011;6287;50.984;7.022;2022-12-29T03:45:59;0.50;;;0.37;;
12445;SDS011;6287;50.984;7.022;2022-12-29T03:48:26;0.70;;;0.30;;
12445;SDS011;6287;50.984;7.022;2022-12-29T03:50:52;0.73;;;0.30;;
12445;SDS011;6287;50.984;7.022;2022-12-29T03:53:22;0.33;;;0.33;;
12445;SDS011;6287;50.984;7.022;2022-12-29T03:55:50;0.40;;;0.40;;
12445;SDS011;6287;50.984;7.022;2022-12-29T03:58:16;0.37;;;0.30;;
12445;SDS011;6287;50.984;7.022;2022-12-29T04:00:42;0.30;;;0.30;;
12445;SDS011;6287;50.984;7.022;2022-12-29T04:03:07;0.30;;;0.30;;
12445;SDS011;6287;50.984;7.022;2022-12-29T04:05:35;0.30;;;0.30;;
12445;SDS011;6287;50.984;7.022;2022-12-29T04:08:03;0.30;;;0.30;;
12445;SDS011;6287;50.984;7.022;2022-12-29T04:10:29;0.53;;;0.53;;
12445;SDS011;6287;50.984;7.022;2022-12-29T04:12:56;0.30;;;0.30;;
12445;SDS011;6287;50.984;7.022;2022-12-29T04:15:22;0.40;;;0.40;;
12445;SDS011;6287;50.984;7.022;2022-12-29T04:17:49;0.60;;;0.50;;
12445;SDS011;6287;50.984;7.022;2022-12-29T04:20:14;0.40;;;0.40;;
12445;SDS011;6287;50.984;7.022;2022-12-29T04:22:59;1.13;;;0.60;;
12445;SDS011;6287;50.984;7.022;2022-12-29T04:25:30;0.90;;;0.40;;
12445;SDS011;6287;50.984;7.022;2022-12-29T04:27:58;0.50;;;0.50;;
12445;SDS011;6287;50.984;7.022;2022-12-29T04:30:26;0.33;;;0.33;;
12445;SDS011;6287;50.984;7.022;2022-12-29T04:32:54;0.50;;;0.30;;
12445;SDS011;6287;50.984;7.022;2022-12-29T04:35:20;0.40;;;0.40;;
12445;SDS011;6287;50.984;7.022;2022-12-29T04:37:47;0.40;;;0.40;;
12445;SDS011;6287;50.984;7.022;2022-12-29T04:40:15;0.33;;;0.33;;
12445;SDS011;6287;50.984;7.022;2022-12-29T04:42:43;0.67;;;0.40;;
12445;SDS011;6287;50.984;7.022;2022-12-29T04:45:08;0.30;;;0.30;;
12445;SDS011;6287;50.984;7.022;2022-12-29T04:47:34;0.30;;;0.30;;
12445;SDS011;6287;50.984;7.022;2022-12-29T04:50:02;0.30;;;0.30;;
12445;SDS011;6287;50.984;7.022;2022-12-29T04:52:33;0.67;;;0.40;;
12445;SDS011;6287;50.984;7.022;2022-12-29T04:54:58;0.30;;;0.30;;
12445;SDS011;6287;50.984;7.022;2022-12-29T04:57:24;0.30;;;0.30;;
12445;SDS011;6287;50.984;7.022;2022-12-29T04:59:52;1.03;;;0.30;;
12445;SDS011;6287;50.984;7.022;2022-12-29T05:02:18;0.50;;;0.50;;
12445;SDS011;6287;50.984;7.022;2022-12-29T05:04:46;0.83;;;0.40;;
12445;SDS011;6287;50.984;7.022;2022-12-29T05:07:12;0.30;;;0.30;;
12445;SDS011;6287;50.984;7.022;2022-12-29T05:09:40;0.40;;;0.40;;
12445;SDS011;6287;50.984;7.022;2022-12-29T05:12:05;0.30;;;0.30;;
12445;SDS011;6287;50.984;7.022;2022-12-29T05:14:33;1.97;;;0.30;;
12445;SDS011;6287;50.984;7.022;2022-12-29T05:16:59;0.67;;;0.50;;
12445;SDS011;6287;50.984;7.022;2022-12-29T05:19:26;0.40;;;0.40;;
12445;SDS011;6287;50.984;7.022;2022-12-29T05:21:57;0.80;;;0.80;;
12445;SDS011;6287;50.984;7.022;2022-12-29T05:24:22;0.47;;;0.47;;
12445;SDS011;6287;50.984;7.022;2022-12-29T05:26:50;1.00;;;0.50;;
12445;SDS011;6287;50.984;7.022;2022-12-29T05:29:18;0.87;;;0.70;;
12445;SDS011;6287;50.984;7.022;2022-12-29T05:31:46;0.60;;;0.60;;
12445;SDS011;6287;50.984;7.022;2022-12-29T05:34:12;0.40;;;0.40;;
12445;SDS011;6287;50.984;7.022;2022-12-29T05:36:40;0.50;;;0.40;;
12445;SDS011;6287;50.984;7.022;2022-12-29T05:39:07;0.40;;;0.40;;
12445;SDS011;6287;50.984;7.022;2022-12-29T05:41:35;1.50;;;0.53;;
12445;SDS011;6287;50.984;7.022;2022-12-29T05:44:01;1.70;;;0.73;;
12445;SDS011;6287;50.984;7.022;2022-12-29T05:46:27;2.00;;;0.40;;
12445;SDS011;6287;50.984;7.022;2022-12-29T05:48:55;1.53;;;0.50;;
12445;SDS011;6287;50.984;7.022;2022-12-29T05:51:24;0.63;;;0.50;;
12445;SDS011;6287;50.984;7.022;2022-12-29T05:53:52;1.03;;;0.50;;
12445;SDS011;6287;50.984;7.022;2022-12-29T05:56:17;1.40;;;0.40;;
12445;SDS011;6287;50.984;7.022;2022-12-29T05:58:45;0.40;;;0.40;;
12445;SDS011;6287;50.984;7.022;2022-12-29T06:01:11;2.57;;;0.50;;
12445;SDS011;6287;50.984;7.022;2022-12-29T06:03:39;0.30;;;0.30;;
12445;SDS011;6287;50.984;7.022;2022-12-29T06:06:07;0.60;;;0.60;;
12445;SDS011;6287;50.984;7.022;2022-12-29T06:08:35;0.70;;;0.50;;
12445;SDS011;6287;50.984;7.022;2022-12-29T06:11:01;0.50;;;0.40;;
12445;SDS011;6287;50.984;7.022;2022-12-29T06:13:28;0.37;;;0.37;;
12445;SDS011;6287;50.984;7.022;2022-12-29T06:15:54;0.33;;;0.33;;
12445;SDS011;6287;50.984;7.022;2022-12-29T06:18:19;0.53;;;0.50;;
12445;SDS011;6287;50.984;7.022;2022-12-29T06:20:47;0.57;;;0.30;;
12445;SDS011;6287;50.984;7.022;2022-12-29T06:23:18;0.30;;;0.30;;
12445;SDS011;6287;50.984;7.022;2022-12-29T06:25:44;0.27;;;0.27;;
12445;SDS011;6287;50.984;7.022;2022-12-29T06:28:13;0.33;;;0.33;;
12445;SDS011;6287;50.984;7.022;2022-12-29T06:30:39;0.77;;;0.50;;
12445;SDS011;6287;50.984;7.022;2022-12-29T06:33:07;0.63;;;0.30;;
12445;SDS011;6287;50.984;7.022;2022-12-29T06:35:35;1.03;;;0.40;;
12445;SDS011;6287;50.984;7.022;2022-12-29T06:38:03;0.40;;;0.40;;
12445;SDS011;6287;50.984;7.022;2022-12-29T06:40:28;0.73;;;0.30;;
12445;SDS011;6287;50.984;7.022;2022-12-29T06:42:57;0.53;;;0.30;;
12445;SDS011;6287;50.984;7.022;2022-12-29T06:45:23;0.47;;;0.30;;
12445;SDS011;6287;50.984;7.022;2022-12-29T06:47:48;1.97;;;0.30;;
12445;SDS011;6287;50.984;7.022;2022-12-29T06:50:16;0.30;;;0.30;;
12445;SDS011;6287;50.984;7.022;2022-12-29T06:52:42;0.47;;;0.33;;
12445;SDS011;6287;50.984;7.022;2022-12-29T06:55:08;0.20;;;0.20;;
12445;SDS011;6287;50.984;7.022;2022-12-29T06:57:33;0.30;;;0.30;;
12445;SDS011;6287;50.984;7.022;2022-12-29T06:59:59;0.20;;;0.20;;
12445;SDS011;6287;50.984;7.022;2022-12-29T07:02:27;0.30;;;0.30;;
12445;SDS011;6287;50.984;7.022;2022-12-29T07:04:52;1.00;;;0.30;;
12445;SDS011;6287;50.984;7.022;2022-12-29T07:07:21;0.30;;;0.30;;
12445;SDS011;6287;50.984;7.022;2022-12-29T07:09:46;1.87;;;0.37;;
12445;SDS011;6287;50.984;7.022;2022-12-29T07:12:12;0.60;;;0.30;;
12445;SDS011;6287;50.984;7.022;2022-12-29T07:14:40;0.40;;;0.40;;
12445;SDS011;6287;50.984;7.022;2022-12-29T07:17:05;0.33;;;0.30;;
12445;SDS011;6287;50.984;7.022;2022-12-29T07:19:33;0.57;;;0.40;;
12445;SDS011;6287;50.984;7.022;2022-12-29T07:22:01;0.73;;;0.27;;
12445;SDS011;6287;50.984;7.022;2022-12-29T07:24:29;1.00;;;0.30;;
12445;SDS011;6287;50.984;7.022;2022-12-29T07:26:59;0.97;;;0.40;;
12445;SDS011;6287;50.984;7.022;2022-12-29T07:29:27;1.80;;;0.40;;
12445;SDS011;6287;50.984;7.022;2022-12-29T07:31:55;0.57;;;0.47;;
12445;SDS011;6287;50.984;7.022;2022-12-29T07:34:25;0.27;;;0.27;;
12445;SDS011;6287;50.984;7.022;2022-12-29T07:36:51;0.40;;;0.20;;
12445;SDS011;6287;50.984;7.022;2022-12-29T07:39:16;1.30;;;0.30;;
12445;SDS011;6287;50.984;7.022;2022-12-29T07:41:42;1.03;;;0.50;;
12445;SDS011;6287;50.984;7.022;2022-12-29T07:44:08;0.60;;;0.30;;
12445;SDS011;6287;50.984;7.022;2022-12-29T07:46:36;0.27;;;0.27;;
12445;SDS011;6287;50.984;7.022;2022-12-29T07:49:02;1.43;;;0.30;;
12445;SDS011;6287;50.984;7.022;2022-12-29T07:51:27;0.30;;;0.30;;
12445;SDS011;6287;50.984;7.022;2022-12-29T07:53:53;0.90;;;0.33;;
12445;SDS011;6287;50.984;7.022;2022-12-29T07:56:21;0.40;;;0.40;;
12445;SDS011;6287;50.984;7.022;2022-12-29T07:58:46;0.60;;;0.40;;
12445;SDS011;6287;50.984;7.022;2022-12-29T08:01:12;0.40;;;0.40;;
12445;SDS011;6287;50.984;7.022;2022-12-29T08:03:40;0.83;;;0.50;;
12445;SDS011;6287;50.984;7.022;2022-12-29T08:06:08;0.37;;;0.37;;
12445;SDS011;6287;50.984;7.022;2022-12-29T08:08:37;3.53;;;3.23;;
12445;SDS011;6287;50.984;7.022;2022-12-29T08:11:03;1.10;;;1.00;;
12445;SDS011;6287;50.984;7.022;2022-12-29T08:13:29;4.80;;;3.70;;
12445;SDS011;6287;50.984;7.022;2022-12-29T08:15:57;0.53;;;0.50;;
12445;SDS011;6287;50.984;7.022;2022-12-29T08:18:23;0.60;;;0.50;;
12445;SDS011;6287;50.984;7.022;2022-12-29T08:20:49;0.67;;;0.40;;
12445;SDS011;6287;50.984;7.022;2022-12-29T08:23:17;2.67;;;1.20;;
12445;SDS011;6287;50.984;7.022;2022-12-29T08:25:45;0.50;;;0.50;;
12445;SDS011;6287;50.984;7.022;2022-12-29T08:28:11;1.00;;;0.50;;
12445;SDS011;6287;50.984;7.022;2022-12-29T08:30:39;0.63;;;0.53;;
12445;SDS011;6287;50.984;7.022;2022-12-29T08:33:04;0.30;;;0.30;;
12445;SDS011;6287;50.984;7.022;2022-12-29T08:35:30;3.03;;;0.50;;
12445;SDS011;6287;50.984;7.022;2022-12-29T08:37:58;1.50;;;0.50;;
12445;SDS011;6287;50.984;7.022;2022-12-29T08:40:26;2.00;;;0.37;;
12445;SDS011;6287;50.984;7.022;2022-12-29T08:42:51;1.60;;;0.50;;
12445;SDS011;6287;50.984;7.022;2022-12-29T08:45:17;1.53;;;0.50;;
12445;SDS011;6287;50.984;7.022;2022-12-29T08:47:45;1.70;;;0.63;;
12445;SDS011;6287;50.984;7.022;2022-12-29T08:50:10;2.53;;;0.90;;
12445;SDS011;6287;50.984;7.022;2022-12-29T08:52:38;0.60;;;0.60;;
12445;SDS011;6287;50.984;7.022;2022-12-29T08:55:04;1.77;;;0.50;;
12445;SDS011;6287;50.984;7.022;2022-12-29T08:57:34;1.87;;;0.50;;
12445;SDS011;6287;50.984;7.022;2022-12-29T09:00:03;2.60;;;0.60;;
12445;SDS011;6287;50.984;7.022;2022-12-29T09:02:31;4.23;;;0.90;;
12445;SDS011;6287;50.984;7.022;2022-12-29T09:04:57;1.13;;;0.50;;
12445;SDS011;6287;50.984;7.022;2022-12-29T09:07:23;2.13;;;0.60;;
12445;SDS011;6287;50.984;7.022;2022-12-29T09:09:52;0.77;;;0.40;;
12445;SDS011;6287;50.984;7.022;2022-12-29T09:12:19;1.73;;;0.67;;
12445;SDS011;6287;50.984;7.022;2022-12-29T09:14:46;0.50;;;0.50;;
12445;SDS011;6287;50.984;7.022;2022-12-29T09:17:14;0.60;;;0.40;;
12445;SDS011;6287;50.984;7.022;2022-12-29T09:19:58;3.07;;;0.80;;
12445;SDS011;6287;50.984;7.022;2022-12-29T09:22:23;1.63;;;0.73;;
12445;SDS011;6287;50.984;7.022;2022-12-29T09:24:49;2.67;;;0.70;;
12445;SDS011;6287;50.984;7.022;2022-12-29T09:27:15;1.57;;;0.80;;
12445;SDS011;6287;50.984;7.022;2022-12-29T09:29:42;1.47;;;0.43;;
12445;SDS011;6287;50.984;7.022;2022-12-29T09:32:13;0.57;;;0.50;;
12445;SDS011;6287;50.984;7.022;2022-12-29T09:34:41;1.13;;;0.53;;
12445;SDS011;6287;50.984;7.022;2022-12-29T09:37:11;2.70;;;0.57;;
12445;SDS011;6287;50.984;7.022;2022-12-29T09:39:39;1.10;;;0.70;;
12445;SDS011;6287;50.984;7.022;2022-12-29T09:42:11;0.63;;;0.40;;
12445;SDS011;6287;50.984;7.022;2022-12-29T09:44:48;0.97;;;0.50;;
12445;SDS011;6287;50.984;7.022;2022-12-29T09:47:44;1.30;;;0.60;;
12445;SDS011;6287;50.984;7.022;2022-12-29T09:50:22;0.87;;;0.50;;
12445;SDS011;6287;50.984;7.022;2022-12-29T09:55:35;0.73;;;0.67;;
12445;SDS011;6287;50.984;7.022;2022-12-29T09:58:05;0.57;;;0.40;;
12445;SDS011;6287;50.984;7.022;2022-12-29T10:00:44;0.83;;;0.50;;
12445;SDS011;6287;50.984;7.022;2022-12-29T10:03:22;0.60;;;0.37;;
12445;SDS011;6287;50.984;7.022;2022-12-29T10:05:59;3.70;;;1.47;;
12445;SDS011;6287;50.984;7.022;2022-12-29T10:08:34;4.10;;;0.60;;
12445;SDS011;6287;50.984;7.022;2022-12-29T10:14:15;2.97;;;0.80;;
12445;SDS011;6287;50.984;7.022;2022-12-29T10:17:24;0.50;;;0.50;;
12445;SDS011;6287;50.984;7.022;2022-12-29T10:22:52;3.13;;;0.50;;
12445;SDS011;6287;50.984;7.022;2022-12-29T10:25:25;2.30;;;0.50;;
12445;SDS011;6287;50.984;7.022;2022-12-29T10:27:53;1.00;;;0.73;;
12445;SDS011;6287;50.984;7.022;2022-12-29T10:30:24;2.00;;;0.50;;
12445;SDS011;6287;50.984;7.022;2022-12-29T10:32:58;2.73;;;0.57;;
12445;SDS011;6287;50.984;7.022;2022-12-29T10:35:31;2.10;;;0.70;;
12445;SDS011;6287;50.984;7.022;2022-12-29T10:43:54;2.47;;;0.60;;
12445;SDS011;6287;50.984;7.022;2022-12-29T10:46:14;1.83;;;0.73;;
12445;SDS011;6287;50.984;7.022;2022-12-29T10:48:43;4.80;;;0.80;;
12445;SDS011;6287;50.984;7.022;2022-12-29T10:51:11;1.37;;;0.60;;
12445;SDS011;6287;50.984;7.022;2022-12-29T10:56:27;0.57;;;0.57;;
12445;SDS011;6287;50.984;7.022;2022-12-29T11:01:54;2.13;;;0.40;;
12445;SDS011;6287;50.984;7.022;2022-12-29T11:04:42;1.53;;;0.70;;
12445;SDS011;6287;50.984;7.022;2022-12-29T11:07:21;1.77;;;0.50;;
12445;SDS011;6287;50.984;7.022;2022-12-29T11:09:47;1.13;;;0.73;;
12445;SDS011;6287;50.984;7.022;2022-12-29T11:15:02;0.37;;;0.20;;
12445;SDS011;6287;50.984;7.022;2022-12-29T11:20:26;0.90;;;0.50;;
12445;SDS011;6287;50.984;7.022;2022-12-29T11:22:52;1.53;;;0.60;;
12445;SDS011;6287;50.984;7.022;2022-12-29T11:25:18;1.80;;;0.50;;
12445;SDS011;6287;50.984;7.022;2022-12-29T11:27:57;2.17;;;0.50;;
12445;SDS011;6287;50.984;7.022;2022-12-29T11:30:31;1.43;;;0.67;;
12445;SDS011;6287;50.984;7.022;2022-12-29T11:32:59;3.60;;;0.70;;
12445;SDS011;6287;50.984;7.022;2022-12-29T11:37:57;1.83;;;0.87;;
12445;SDS011;6287;50.984;7.022;2022-12-29T11:40:28;3.60;;;1.00;;
12445;SDS011;6287;50.984;7.022;2022-12-29T11:42:55;2.10;;;0.87;;
12445;SDS011;6287;50.984;7.022;2022-12-29T11:45:28;1.37;;;0.60;;
12445;SDS011;6287;50.984;7.022;2022-12-29T11:48:16;1.90;;;0.47;;
12445;SDS011;6287;50.984;7.022;2022-12-29T11:50:48;4.87;;;0.93;;
12445;SDS011;6287;50.984;7.022;2022-12-29T11:53:26;2.77;;;0.70;;
12445;SDS011;6287;50.984;7.022;2022-12-29T11:56:16;2.13;;;0.70;;
12445;SDS011;6287;50.984;7.022;2022-12-29T11:58:47;1.57;;;0.60;;
12445;SDS011;6287;50.984;7.022;2022-12-29T12:01:26;1.07;;;0.60;;
12445;SDS011;6287;50.984;7.022;2022-12-29T12:04:12;3.63;;;0.53;;
12445;SDS011;6287;50.984;7.022;2022-12-29T12:06:45;2.03;;;0.73;;
12445;SDS011;6287;50.984;7.022;2022-12-29T12:09:31;2.90;;;0.90;;
12445;SDS011;6287;50.984;7.022;2022-12-29T12:12:05;1.30;;;0.60;;
12445;SDS011;6287;50.984;7.022;2022-12-29T12:14:42;1.70;;;0.80;;
12445;SDS011;6287;50.984;7.022;2022-12-29T12:17:44;1.97;;;0.50;;
12445;SDS011;6287;50.984;7.022;2022-12-29T12:29:04;0.83;;;0.60;;
12445;SDS011;6287;50.984;7.022;2022-12-29T12:34:28;0.70;;;0.70;;
12445;SDS011;6287;50.984;7.022;2022-12-29T12:39:44;1.70;;;0.40;;
12445;SDS011;6287;50.984;7.022;2022-12-29T12:54:01;2.27;;;0.67;;
12445;SDS011;6287;50.984;7.022;2022-12-29T12:59:59;1.33;;;0.53;;
12445;SDS011;6287;50.984;7.022;2022-12-29T13:14:01;1.37;;;0.60;;
12445;SDS011;6287;50.984;7.022;2022-12-29T13:22:09;2.40;;;0.73;;
12445;SDS011;6287;50.984;7.022;2022-12-29T13:27:48;1.90;;;0.67;;
12445;SDS011;6287;50.984;7.022;2022-12-29T13:30:20;3.17;;;0.90;;
12445;SDS011;6287;50.984;7.022;2022-12-29T13:33:00;3.13;;;0.80;;
12445;SDS011;6287;50.984;7.022;2022-12-29T13:36:45;1.77;;;0.50;;
12445;SDS011;6287;50.984;7.022;2022-12-29T13:41:47;3.00;;;0.53;;
12445;SDS011;6287;50.984;7.022;2022-12-29T13:44:17;2.37;;;0.70;;
12445;SDS011;6287;50.984;7.022;2022-12-29T13:46:51;2.40;;;0.77;;
12445;SDS011;6287;50.984;7.022;2022-12-29T13:49:20;0.50;;;0.50;;
12445;SDS011;6287;50.984;7.022;2022-12-29T13:51:56;1.33;;;0.60;;
12445;SDS011;6287;50.984;7.022;2022-12-29T13:57:15;3.40;;;0.70;;
12445;SDS011;6287;50.984;7.022;2022-12-29T14:00:03;2.20;;;0.90;;
12445;SDS011;6287;50.984;7.022;2022-12-29T14:07:56;1.77;;;0.67;;
12445;SDS011;6287;50.984;7.022;2022-12-29T14:10:33;2.37;;;0.97;;
12445;SDS011;6287;50.984;7.022;2022-12-29T14:13:09;1.67;;;0.80;;
12445;SDS011;6287;50.984;7.022;2022-12-29T14:15:55;0.80;;;0.60;;
12445;SDS011;6287;50.984;7.022;2022-12-29T14:18:27;2.87;;;0.70;;
12445;SDS011;6287;50.984;7.022;2022-12-29T14:20:59;3.13;;;0.80;;
12445;SDS011;6287;50.984;7.022;2022-12-29T14:28:46;1.17;;;0.57;;
12445;SDS011;6287;50.984;7.022;2022-12-29T14:34:42;1.40;;;0.63;;
12445;SDS011;6287;50.984;7.022;2022-12-29T14:36:40;0.93;;;0.80;;
12445;SDS011;6287;50.984;7.022;2022-12-29T14:39:41;3.33;;;1.30;;
12445;SDS011;6287;50.984;7.022;2022-12-29T14:44:45;1.10;;;0.97;;
12445;SDS011;6287;50.984;7.022;2022-12-29T14:50:03;0.90;;;0.53;;
12445;SDS011;6287;50.984;7.022;2022-12-29T14:53:27;1.57;;;0.50;;
12445;SDS011;6287;50.984;7.022;2022-12-29T14:58:31;1.27;;;0.60;;
12445;SDS011;6287;50.984;7.022;2022-12-29T15:01:02;4.50;;;0.70;;
12445;SDS011;6287;50.984;7.022;2022-12-29T15:03:43;1.03;;;0.67;;
12445;SDS011;6287;50.984;7.022;2022-12-29T15:06:14;4.17;;;1.03;;
12445;SDS011;6287;50.984;7.022;2022-12-29T15:11:20;6.10;;;1.93;;
12445;SDS011;6287;50.984;7.022;2022-12-29T15:13:53;2.37;;;1.03;;
12445;SDS011;6287;50.984;7.022;2022-12-29T15:16:29;3.30;;;1.40;;
12445;SDS011;6287;50.984;7.022;2022-12-29T15:18:58;2.60;;;0.87;;
12445;SDS011;6287;50.984;7.022;2022-12-29T15:21:31;1.40;;;0.77;;
12445;SDS011;6287;50.984;7.022;2022-12-29T15:24:01;3.60;;;1.20;;
12445;SDS011;6287;50.984;7.022;2022-12-29T15:26:41;5.37;;;1.93;;
12445;SDS011;6287;50.984;7.022;2022-12-29T15:29:32;1.73;;;1.00;;
12445;SDS011;6287;50.984;7.022;2022-12-29T15:32:15;0.87;;;0.60;;
12445;SDS011;6287;50.984;7.022;2022-12-29T15:34:50;2.63;;;0.70;;
12445;SDS011;6287;50.984;7.022;2022-12-29T15:37:18;6.63;;;0.90;;
12445;SDS011;6287;50.984;7.022;2022-12-29T15:39:47;2.50;;;1.00;;
12445;SDS011;6287;50.984;7.022;2022-12-29T15:42:21;2.43;;;0.53;;
12445;SDS011;6287;50.984;7.022;2022-12-29T15:45:12;2.53;;;0.90;;
12445;SDS011;6287;50.984;7.022;2022-12-29T15:47:39;1.43;;;1.00;;
12445;SDS011;6287;50.984;7.022;2022-12-29T15:50:24;2.40;;;1.27;;
12445;SDS011;6287;50.984;7.022;2022-12-29T15:52:57;2.37;;;1.10;;
12445;SDS011;6287;50.984;7.022;2022-12-29T15:57:55;4.20;;;1.30;;
12445;SDS011;6287;50.984;7.022;2022-12-29T16:00:28;2.67;;;0.97;;
12445;SDS011;6287;50.984;7.022;2022-12-29T16:02:57;1.47;;;0.70;;
12445;SDS011;6287;50.984;7.022;2022-12-29T16:05:34;1.73;;;1.40;;
12445;SDS011;6287;50.984;7.022;2022-12-29T16:08:02;1.93;;;0.90;;
12445;SDS011;6287;50.984;7.022;2022-12-29T16:10:47;2.10;;;0.90;;
12445;SDS011;6287;50.984;7.022;2022-12-29T16:15:51;3.20;;;1.00;;
12445;SDS011;6287;50.984;7.022;2022-12-29T16:18:24;2.83;;;1.10;;
12445;SDS011;6287;50.984;7.022;2022-12-29T16:20:53;3.13;;;1.20;;
12445;SDS011;6287;50.984;7.022;2022-12-29T16:23:22;4.13;;;1.30;;
12445;SDS011;6287;50.984;7.022;2022-12-29T16:25:51;2.63;;;1.57;;
12445;SDS011;6287;50.984;7.022;2022-12-29T16:28:23;2.87;;;1.13;;
12445;SDS011;6287;50.984;7.022;2022-12-29T16:30:57;2.97;;;1.47;;
12445;SDS011;6287;50.984;7.022;2022-12-29T16:33:38;2.40;;;1.00;;
12445;SDS011;6287;50.984;7.022;2022-12-29T16:36:23;3.43;;;1.07;;
12445;SDS011;6287;50.984;7.022;2022-12-29T16:41:36;3.57;;;1.20;;
12445;SDS011;6287;50.984;7.022;2022-12-29T16:44:11;2.70;;;1.20;;
12445;SDS011;6287;50.984;7.022;2022-12-29T16:47:29;2.07;;;1.20;;
12445;SDS011;6287;50.984;7.022;2022-12-29T16:49:36;3.20;;;1.00;;
12445;SDS011;6287;50.984;7.022;2022-12-29T16:52:11;6.27;;;1.93;;
12445;SDS011;6287;50.984;7.022;2022-12-29T16:54:43;4.53;;;1.50;;
12445;SDS011;6287;50.984;7.022;2022-12-29T16:57:21;6.50;;;2.27;;
12445;SDS011;6287;50.984;7.022;2022-12-29T16:59:53;8.57;;;2.90;;
12445;SDS011;6287;50.984;7.022;2022-12-29T17:02:21;5.77;;;2.77;;
12445;SDS011;6287;50.984;7.022;2022-12-29T17:04:52;4.07;;;2.07;;
12445;SDS011;6287;50.984;7.022;2022-12-29T17:07:22;4.20;;;1.57;;
12445;SDS011;6287;50.984;7.022;2022-12-29T17:09:49;4.27;;;1.90;;
12445;SDS011;6287;50.984;7.022;2022-12-29T17:12:36;6.80;;;2.20;;
12445;SDS011;6287;50.984;7.022;2022-12-29T17:15:07;5.97;;;2.33;;
12445;SDS011;6287;50.984;7.022;2022-12-29T17:17:44;5.33;;;2.40;;
12445;SDS011;6287;50.984;7.022;2022-12-29T17:22:41;5.87;;;2.80;;
12445;SDS011;6287;50.984;7.022;2022-12-29T17:25:11;4.37;;;2.27;;
12445;SDS011;6287;50.984;7.022;2022-12-29T17:27:44;6.93;;;2.53;;
12445;SDS011;6287;50.984;7.022;2022-12-29T17:30:17;2.20;;;1.33;;
12445;SDS011;6287;50.984;7.022;2022-12-29T17:32:48;4.83;;;2.17;;
12445;SDS011;6287;50.984;7.022;2022-12-29T17:35:19;4.53;;;1.87;;
12445;SDS011;6287;50.984;7.022;2022-12-29T17:37:46;3.40;;;1.60;;
12445;SDS011;6287;50.984;7.022;2022-12-29T17:40:19;7.90;;;2.90;;
12445;SDS011;6287;50.984;7.022;2022-12-29T17:42:51;7.00;;;2.80;;
12445;SDS011;6287;50.984;7.022;2022-12-29T17:48:00;11.47;;;4.37;;
12445;SDS011;6287;50.984;7.022;2022-12-29T17:50:29;6.10;;;3.17;;
12445;SDS011;6287;50.984;7.022;2022-12-29T17:53:02;4.63;;;2.67;;
12445;SDS011;6287;50.984;7.022;2022-12-29T17:55:32;2.73;;;2.10;;
12445;SDS011;6287;50.984;7.022;2022-12-29T17:58:00;4.37;;;1.77;;
12445;SDS011;6287;50.984;7.022;2022-12-29T18:00:30;3.93;;;1.20;;